createdAt,value
2023-03-19T00:01:05.940Z,11.37
2023-03-19T00:03:34.238Z,11.20
2023-03-19T00:06:03.961Z,11.93
2023-03-19T00:08:32.118Z,11.00
2023-03-19T00:11:00.323Z,11.17
2023-03-19T00:13:28.751Z,10.23
2023-03-19T00:15:56.925Z,11.20
2023-03-19T00:18:25.179Z,11.50
2023-03-19T00:20:53.339Z,11.20
2023-03-19T00:23:22.860Z,11.37
2023-03-19T00:25:50.987Z,10.80
2023-03-19T00:28:19.234Z,10.50
2023-03-19T00:30:47.465Z,11.27
2023-03-19T00:33:15.781Z,10.60
2023-03-19T00:35:44.000Z,10.27
2023-03-19T00:38:12.160Z,9.90
2023-03-19T00:40:42.575Z,10.60
2023-03-19T00:43:10.828Z,10.73
2023-03-19T00:45:38.998Z,10.90
2023-03-19T00:48:07.965Z,9.77
2023-03-19T00:50:36.389Z,9.97
2023-03-19T00:53:04.653Z,10.40
2023-03-19T00:55:33.109Z,10.20
2023-03-19T00:58:02.824Z,9.67
2023-03-19T01:00:30.931Z,9.90
2023-03-19T01:02:59.044Z,10.27
2023-03-19T01:05:27.890Z,10.40
2023-03-19T01:07:56.256Z,10.33
2023-03-19T01:10:26.011Z,10.23
2023-03-19T01:12:54.296Z,10.40
2023-03-19T01:15:23.855Z,10.60
2023-03-19T01:17:52.063Z,10.77
2023-03-19T01:20:23.926Z,9.93
2023-03-19T01:22:52.206Z,10.00
2023-03-19T01:25:20.550Z,10.10
2023-03-19T01:27:48.718Z,9.57
2023-03-19T01:30:18.545Z,10.80
2023-03-19T01:32:48.311Z,10.30
2023-03-19T01:35:17.023Z,10.10
2023-03-19T01:37:45.178Z,10.30
2023-03-19T01:40:15.511Z,10.80
2023-03-19T01:42:55.664Z,10.10
2023-03-19T01:45:38.574Z,9.70
2023-03-19T01:48:20.099Z,10.60
2023-03-19T01:50:53.887Z,10.57
2023-03-19T01:53:27.419Z,9.63
2023-03-19T01:56:03.907Z,10.10
2023-03-19T01:58:32.405Z,10.33
2023-03-19T02:01:00.578Z,10.23
2023-03-19T02:03:31.177Z,10.53
2023-03-19T02:06:01.005Z,10.60
2023-03-19T02:08:30.766Z,10.27
2023-03-19T02:11:00.413Z,10.77
2023-03-19T02:13:29.046Z,11.67
2023-03-19T02:15:58.196Z,11.03
2023-03-19T02:18:27.173Z,10.73
2023-03-19T02:21:06.790Z,10.90
2023-03-19T02:23:46.776Z,10.80
2023-03-19T02:26:18.651Z,11.07
2023-03-19T02:28:49.694Z,10.67
2023-03-19T02:31:18.645Z,10.03
2023-03-19T02:33:57.478Z,10.90
2023-03-19T02:36:31.458Z,10.83
2023-03-19T02:39:03.524Z,10.00
2023-03-19T02:41:35.266Z,10.90
2023-03-19T02:44:05.751Z,11.37
2023-03-19T02:46:34.026Z,11.13
2023-03-19T02:49:02.405Z,10.70
2023-03-19T02:51:30.622Z,10.10
2023-03-19T02:54:00.801Z,10.83
2023-03-19T02:56:28.992Z,11.17
2023-03-19T02:58:58.467Z,10.67
2023-03-19T03:01:26.731Z,9.73
2023-03-19T03:03:55.072Z,10.00
2023-03-19T03:06:23.202Z,10.10
2023-03-19T03:08:52.100Z,10.50
2023-03-19T03:11:20.308Z,10.53
2023-03-19T03:13:48.414Z,10.00
2023-03-19T03:16:18.373Z,10.43
2023-03-19T03:18:46.483Z,10.50
2023-03-19T03:21:15.215Z,10.70
2023-03-19T03:23:43.344Z,10.23
2023-03-19T03:26:11.423Z,9.73
2023-03-19T03:28:39.608Z,10.07
2023-03-19T03:31:07.966Z,10.23
2023-03-19T03:33:37.727Z,9.80
2023-03-19T03:36:06.624Z,10.13
2023-03-19T03:38:34.880Z,10.03
2023-03-19T03:41:03.380Z,10.83
2023-03-19T03:43:31.528Z,9.80
2023-03-19T03:45:59.669Z,10.23
2023-03-19T03:48:28.530Z,10.43
2023-03-19T03:50:58.016Z,9.80
2023-03-19T03:53:26.278Z,10.43
2023-03-19T03:55:54.398Z,10.97
2023-03-19T03:58:23.932Z,10.23
2023-03-19T04:00:52.340Z,10.30
2023-03-19T04:03:20.491Z,10.43
2023-03-19T04:05:48.595Z,10.80
2023-03-19T04:08:18.240Z,10.77
2023-03-19T04:10:46.368Z,10.63
2023-03-19T04:13:14.803Z,9.43
2023-03-19T04:15:44.310Z,10.70
2023-03-19T04:18:12.446Z,10.23
2023-03-19T04:20:41.211Z,10.30
2023-03-19T04:23:09.310Z,9.47
2023-03-19T04:25:41.137Z,10.17
2023-03-19T04:28:10.340Z,10.37
2023-03-19T04:30:38.877Z,9.53
2023-03-19T04:33:07.288Z,9.73
2023-03-19T04:35:36.266Z,10.47
2023-03-19T04:38:05.434Z,10.00
2023-03-19T04:40:33.889Z,10.20
2023-03-19T04:43:03.774Z,9.87
2023-03-19T04:45:32.251Z,10.57
2023-03-19T04:48:00.372Z,10.40
2023-03-19T04:50:29.225Z,10.07
2023-03-19T04:52:57.553Z,10.27
2023-03-19T04:55:25.695Z,9.93
2023-03-19T04:57:53.825Z,10.03
2023-03-19T05:00:23.692Z,9.80
2023-03-19T05:02:51.919Z,10.43
2023-03-19T05:05:20.031Z,10.63
2023-03-19T05:07:48.277Z,10.57
2023-03-19T05:10:16.661Z,9.77
2023-03-19T05:12:44.793Z,10.40
2023-03-19T05:15:13.418Z,11.40
2023-03-19T05:17:43.840Z,10.60
2023-03-19T05:20:14.319Z,10.50
2023-03-19T05:22:42.515Z,10.70
2023-03-19T05:25:11.082Z,11.37
2023-03-19T05:27:39.289Z,11.23
2023-03-19T05:30:10.903Z,10.63
2023-03-19T05:32:40.669Z,10.07
2023-03-19T05:35:11.249Z,11.00
2023-03-19T05:37:39.822Z,12.03
2023-03-19T05:40:08.995Z,11.17
2023-03-19T05:42:37.888Z,11.03
2023-03-19T05:45:07.040Z,10.70
2023-03-19T05:47:35.396Z,10.63
2023-03-19T05:50:03.674Z,10.77
2023-03-19T05:52:33.230Z,10.43
2023-03-19T05:55:01.442Z,10.67
2023-03-19T05:57:29.874Z,10.40
2023-03-19T05:59:58.214Z,10.97
2023-03-19T06:02:26.974Z,10.37
2023-03-19T06:04:55.098Z,10.80
2023-03-19T06:07:23.240Z,10.30
2023-03-19T06:09:52.902Z,10.27
2023-03-19T06:12:21.880Z,10.17
2023-03-19T06:14:50.080Z,11.30
2023-03-19T06:17:18.364Z,10.37
2023-03-19T06:19:46.507Z,10.60
2023-03-19T06:22:14.661Z,10.47
2023-03-19T06:24:42.969Z,9.60
2023-03-19T06:27:12.953Z,10.03
2023-03-19T06:29:41.103Z,10.10
2023-03-19T06:32:10.833Z,9.47
2023-03-19T06:34:38.979Z,10.37
2023-03-19T06:37:07.469Z,10.30
2023-03-19T06:39:35.618Z,10.90
2023-03-19T06:42:03.745Z,10.40
2023-03-19T06:44:33.499Z,9.53
2023-03-19T06:47:01.584Z,10.63
2023-03-19T06:49:29.689Z,10.00
2023-03-19T06:51:57.820Z,9.60
2023-03-19T06:54:26.068Z,10.30
2023-03-19T06:56:54.206Z,10.37
2023-03-19T06:59:22.642Z,10.13
2023-03-19T07:01:52.484Z,9.30
2023-03-19T07:04:21.379Z,11.40
2023-03-19T07:06:49.564Z,10.03
2023-03-19T07:09:17.774Z,10.90
2023-03-19T07:11:46.008Z,10.17
2023-03-19T07:14:14.161Z,10.50
2023-03-19T07:16:42.319Z,10.23
2023-03-19T07:19:11.864Z,9.10
2023-03-19T07:21:40.293Z,9.63
2023-03-19T07:24:08.738Z,9.63
2023-03-19T07:26:36.902Z,9.50
2023-03-19T07:29:05.025Z,9.10
2023-03-19T07:31:33.287Z,8.60
2023-03-19T07:34:01.440Z,9.37
2023-03-19T07:36:31.370Z,9.13
2023-03-19T07:38:59.532Z,9.27
2023-03-19T07:41:27.652Z,9.10
2023-03-19T07:43:55.900Z,9.03
2023-03-19T07:46:24.121Z,9.10
2023-03-19T07:48:52.585Z,8.30
2023-03-19T07:51:21.327Z,9.03
2023-03-19T07:53:50.786Z,9.13
2023-03-19T07:56:18.912Z,8.77
2023-03-19T07:58:47.014Z,9.10
2023-03-19T08:01:15.434Z,8.73
2023-03-19T08:03:43.836Z,9.10
2023-03-19T08:06:12.468Z,8.53
2023-03-19T08:08:41.047Z,9.00
2023-03-19T08:11:10.778Z,9.40
2023-03-19T08:13:38.960Z,9.93
2023-03-19T08:16:08.536Z,8.60
2023-03-19T08:18:36.926Z,8.43
2023-03-19T08:21:05.737Z,9.07
2023-03-19T08:23:33.887Z,8.77
2023-03-19T08:26:02.186Z,8.73
2023-03-19T08:28:31.729Z,9.07
2023-03-19T08:30:59.929Z,8.13
2023-03-19T08:33:28.208Z,9.25
2023-03-19T08:36:07.810Z,8.40
2023-03-19T08:38:36.132Z,7.80
2023-03-19T08:41:04.438Z,8.65
2023-03-19T08:43:36.609Z,8.60
2023-03-19T08:46:05.950Z,8.23
2023-03-19T08:48:34.357Z,8.02
2023-03-19T08:51:04.501Z,7.47
2023-03-19T08:53:34.110Z,8.18
2023-03-19T08:56:06.149Z,8.32
2023-03-19T08:58:36.269Z,7.97
2023-03-19T09:01:09.996Z,7.80
2023-03-19T09:03:38.693Z,7.70
2023-03-19T09:06:10.793Z,8.07
2023-03-19T09:08:39.621Z,7.40
2023-03-19T09:11:08.095Z,8.48
2023-03-19T09:13:38.485Z,7.28
2023-03-19T09:16:07.892Z,7.32
2023-03-19T09:18:36.607Z,7.38
2023-03-19T09:21:05.947Z,7.18
2023-03-19T09:23:34.517Z,7.03
2023-03-19T09:26:02.800Z,7.45
2023-03-19T09:28:31.132Z,7.75
2023-03-19T09:31:06.924Z,7.50
2023-03-19T09:33:35.270Z,7.30
2023-03-19T09:36:03.553Z,7.30
2023-03-19T09:38:31.719Z,7.60
2023-03-19T09:41:11.309Z,7.95
2023-03-19T09:44:01.349Z,7.22
2023-03-19T09:46:43.321Z,7.22
2023-03-19T09:49:23.090Z,6.75
2023-03-19T09:51:55.940Z,6.88
2023-03-19T09:54:36.235Z,7.00
2023-03-19T09:57:05.388Z,7.10
2023-03-19T09:59:33.698Z,6.93
2023-03-19T10:02:41.395Z,7.35
2023-03-19T10:05:27.022Z,7.32
2023-03-19T10:08:33.726Z,6.20
2023-03-19T10:11:25.911Z,12.70
2023-03-19T10:14:17.046Z,7.15
2023-03-19T10:16:52.043Z,6.88
2023-03-19T10:19:32.406Z,6.80
2023-03-19T10:22:08.789Z,6.45
2023-03-19T10:24:41.470Z,6.13
2023-03-19T10:27:15.756Z,6.53
2023-03-19T10:29:44.165Z,6.57
2023-03-19T10:32:21.185Z,6.63
2023-03-19T10:34:53.856Z,6.43
2023-03-19T10:37:25.490Z,6.63
2023-03-19T10:39:57.912Z,6.78
2023-03-19T10:42:57.358Z,6.22
2023-03-19T10:45:29.182Z,6.10
2023-03-19T10:47:59.439Z,6.97
2023-03-19T10:50:36.153Z,6.68
2023-03-19T10:53:22.302Z,6.53
2023-03-19T10:55:55.958Z,5.95
2023-03-19T10:58:28.268Z,6.53
2023-03-19T11:00:59.612Z,5.70
2023-03-19T11:03:34.450Z,5.60
2023-03-19T11:06:18.447Z,5.18
2023-03-19T11:08:56.864Z,5.72
2023-03-19T11:11:36.800Z,6.05
2023-03-19T11:14:11.139Z,5.80
2023-03-19T11:16:57.272Z,5.60
2023-03-19T11:19:29.519Z,6.20
2023-03-19T11:22:11.056Z,6.47
2023-03-19T11:24:41.393Z,6.15
2023-03-19T11:27:11.485Z,6.38
2023-03-19T11:29:44.318Z,6.15
2023-03-19T11:32:46.658Z,5.72
2023-03-19T11:35:22.305Z,6.60
2023-03-19T11:38:00.652Z,5.25
2023-03-19T11:40:43.785Z,5.53
2023-03-19T11:43:45.463Z,5.57
2023-03-19T11:46:37.529Z,5.60
2023-03-19T11:49:54.405Z,5.55
2023-03-19T11:52:33.832Z,5.00
2023-03-19T11:55:22.172Z,5.32
2023-03-19T11:58:23.744Z,5.40
2023-03-19T12:00:53.863Z,4.80
2023-03-19T12:04:02.721Z,5.35
2023-03-19T12:06:47.665Z,4.35
2023-03-19T12:09:29.110Z,4.60
2023-03-19T12:12:13.086Z,4.38
2023-03-19T12:15:00.791Z,5.03
2023-03-19T12:17:47.245Z,4.60
2023-03-19T12:20:46.726Z,4.55
2023-03-19T12:23:35.844Z,4.30
2023-03-19T12:26:08.791Z,4.32
2023-03-19T12:28:49.271Z,3.72
2023-03-19T12:32:01.464Z,4.40
2023-03-19T12:34:36.525Z,4.18
2023-03-19T12:37:22.503Z,3.83
2023-03-19T12:40:07.556Z,3.85
2023-03-19T12:42:41.058Z,3.40
2023-03-19T12:45:30.384Z,3.17
2023-03-19T12:48:06.309Z,3.38
2023-03-19T12:50:39.646Z,3.20
2023-03-19T12:53:15.785Z,3.40
2023-03-19T12:55:51.385Z,3.42
2023-03-19T12:58:28.236Z,3.30
2023-03-19T13:01:08.874Z,3.47
2023-03-19T13:03:51.565Z,2.53
2023-03-19T13:06:26.022Z,2.45
2023-03-19T13:09:03.009Z,2.60
2023-03-19T13:11:45.179Z,2.60
2023-03-19T13:14:26.621Z,2.42
2023-03-19T13:17:08.484Z,2.40
2023-03-19T13:19:47.078Z,2.50
2023-03-19T13:22:22.417Z,1.58
2023-03-19T13:24:53.399Z,1.80
2023-03-19T13:27:27.156Z,2.00
2023-03-19T13:30:08.510Z,1.60
2023-03-19T13:32:44.333Z,1.58
2023-03-19T13:35:40.599Z,1.60
2023-03-19T13:38:21.117Z,1.60
2023-03-19T13:40:52.039Z,1.60
2023-03-19T13:43:54.362Z,1.85
2023-03-19T13:46:39.781Z,2.42
2023-03-19T13:49:33.580Z,1.88
2023-03-19T13:52:30.289Z,2.65
2023-03-19T13:55:32.656Z,2.33
2023-03-19T13:58:38.350Z,2.60
2023-03-19T14:01:10.408Z,2.67
2023-03-19T14:03:54.208Z,2.80
2023-03-19T14:06:39.845Z,3.10
2023-03-19T14:09:48.530Z,3.10
2023-03-19T14:12:32.841Z,2.55
2023-03-19T14:15:05.847Z,2.60
2023-03-19T14:17:37.505Z,2.20
2023-03-19T14:20:37.365Z,2.57
2023-03-19T14:23:41.262Z,2.60
2023-03-19T14:26:22.865Z,2.80
2023-03-19T14:29:00.370Z,2.80
2023-03-19T14:31:36.213Z,3.23
2023-03-19T14:34:19.160Z,3.50
2023-03-19T14:36:53.863Z,4.28
2023-03-19T14:39:27.419Z,3.83
2023-03-19T14:42:06.161Z,3.33
2023-03-19T14:45:32.596Z,3.27
2023-03-19T14:48:38.795Z,3.50
2023-03-19T14:51:58.920Z,3.30
2023-03-19T14:54:41.987Z,3.28
2023-03-19T14:57:18.016Z,2.90
2023-03-19T14:59:46.781Z,3.10
2023-03-19T15:02:34.765Z,2.90
2023-03-19T15:05:08.577Z,3.30
2023-03-19T15:07:41.517Z,2.80
2023-03-19T15:10:20.154Z,2.97
2023-03-19T15:13:08.570Z,3.07
2023-03-19T15:15:54.212Z,3.00
2023-03-19T15:18:23.447Z,3.27
2023-03-19T15:20:55.318Z,2.90
2023-03-19T15:23:28.603Z,2.70
2023-03-19T15:26:01.766Z,2.80
2023-03-19T15:28:34.537Z,2.70
2023-03-19T15:31:28.650Z,2.63
2023-03-19T15:33:55.112Z,2.67
2023-03-19T15:36:29.964Z,3.00
2023-03-19T15:39:04.073Z,2.80
2023-03-19T15:41:40.214Z,2.65
2023-03-19T15:44:18.751Z,3.08
2023-03-19T15:46:49.541Z,2.58
2023-03-19T15:49:26.282Z,3.00
2023-03-19T15:52:03.007Z,4.20
2023-03-19T15:54:31.284Z,2.97
2023-03-19T15:57:00.876Z,3.33
2023-03-19T15:59:31.876Z,3.40
2023-03-19T16:02:03.625Z,3.30
2023-03-19T16:04:37.911Z,2.97
2023-03-19T16:07:26.940Z,3.10
2023-03-19T16:09:55.459Z,2.70
2023-03-19T16:12:39.309Z,2.33
2023-03-19T16:15:29.395Z,2.50
2023-03-19T16:18:10.629Z,2.60
2023-03-19T16:20:45.865Z,1.90
2023-03-19T16:23:19.399Z,2.78
2023-03-19T16:25:48.375Z,3.23
2023-03-19T16:28:23.769Z,2.97
2023-03-19T16:30:52.910Z,2.50
2023-03-19T16:33:21.143Z,2.73
2023-03-19T16:35:53.046Z,3.35
2023-03-19T16:38:25.997Z,2.90
2023-03-19T16:41:23.927Z,3.10
2023-03-19T16:43:55.256Z,2.73
2023-03-19T16:46:24.718Z,3.17
2023-03-19T16:48:52.770Z,3.33
2023-03-19T16:51:22.667Z,3.23
2023-03-19T16:53:51.019Z,3.13
2023-03-19T16:56:19.211Z,3.30
2023-03-19T16:58:48.181Z,3.37
2023-03-19T17:01:21.256Z,2.97
2023-03-19T17:03:50.628Z,3.27
2023-03-19T17:06:20.074Z,3.23
2023-03-19T17:08:48.465Z,3.80
2023-03-19T17:11:25.683Z,3.30
2023-03-19T17:13:55.479Z,3.93
2023-03-19T17:16:25.604Z,3.67
2023-03-19T17:18:54.448Z,3.30
2023-03-19T17:21:27.015Z,3.33
2023-03-19T17:23:56.028Z,3.60
2023-03-19T17:26:26.777Z,3.03
2023-03-19T17:28:56.119Z,3.30
2023-03-19T17:31:31.473Z,3.87
2023-03-19T17:34:04.413Z,3.80
2023-03-19T17:36:33.478Z,3.97
2023-03-19T17:39:01.882Z,4.20
2023-03-19T17:41:32.823Z,3.60
2023-03-19T17:44:02.913Z,3.97
2023-03-19T17:46:39.663Z,3.83
2023-03-19T17:49:13.329Z,3.70
2023-03-19T17:51:41.436Z,3.90
2023-03-19T17:54:13.457Z,3.67
2023-03-19T17:56:43.384Z,3.80
2023-03-19T17:59:12.146Z,4.00
2023-03-19T18:01:43.966Z,3.87
2023-03-19T18:04:16.705Z,3.60
2023-03-19T18:06:49.531Z,4.23
2023-03-19T18:09:22.467Z,4.00
2023-03-19T18:11:51.467Z,3.80
2023-03-19T18:14:19.622Z,3.50
2023-03-19T18:16:49.323Z,4.00
2023-03-19T18:19:25.835Z,3.73
2023-03-19T18:21:53.916Z,4.20
2023-03-19T18:24:21.997Z,3.23
2023-03-19T18:26:50.355Z,3.50
2023-03-19T18:29:18.438Z,3.57
2023-03-19T18:31:52.114Z,3.80
2023-03-19T18:34:20.491Z,3.97
2023-03-19T18:36:48.616Z,4.00
2023-03-19T18:39:17.450Z,3.80
2023-03-19T18:41:45.746Z,4.40
2023-03-19T18:44:13.855Z,4.17
2023-03-19T18:46:43.087Z,4.17
2023-03-19T18:49:25.077Z,3.70
2023-03-19T18:52:02.757Z,4.10
2023-03-19T18:54:32.782Z,4.20
2023-03-19T18:57:02.680Z,4.50
2023-03-19T18:59:33.940Z,4.30
2023-03-19T19:02:20.275Z,5.03
2023-03-19T19:04:49.883Z,4.20
2023-03-19T19:07:18.168Z,3.97
2023-03-19T19:09:46.444Z,4.00
2023-03-19T19:12:19.015Z,4.00
2023-03-19T19:14:47.614Z,4.20
2023-03-19T19:17:18.497Z,4.50
2023-03-19T19:19:46.771Z,3.93
2023-03-19T19:22:18.748Z,3.87
2023-03-19T19:24:47.660Z,4.10
2023-03-19T19:27:19.973Z,4.00
2023-03-19T19:29:48.905Z,4.00
2023-03-19T19:32:24.550Z,3.87
2023-03-19T19:34:53.098Z,4.57
2023-03-19T19:37:24.236Z,4.80
2023-03-19T19:39:53.493Z,5.17
2023-03-19T19:42:23.712Z,5.53
2023-03-19T19:44:55.287Z,5.30
2023-03-19T19:47:23.532Z,5.60
2023-03-19T19:49:51.909Z,5.30
2023-03-19T19:52:22.141Z,5.57
2023-03-19T19:54:51.839Z,4.50
2023-03-19T19:57:24.607Z,5.27
2023-03-19T19:59:55.318Z,4.70
2023-03-19T20:02:29.531Z,4.80
2023-03-19T20:04:58.649Z,4.10
2023-03-19T20:07:28.136Z,4.27
2023-03-19T20:09:56.291Z,4.43
2023-03-19T20:12:29.284Z,4.27
2023-03-19T20:14:58.569Z,4.50
2023-03-19T20:17:27.362Z,4.53
2023-03-19T20:19:55.703Z,4.80
2023-03-19T20:22:23.760Z,4.63
2023-03-19T20:24:53.144Z,5.73
2023-03-19T20:27:33.619Z,5.47
2023-03-19T20:30:01.798Z,5.70
2023-03-19T20:32:36.189Z,6.70
2023-03-19T20:35:08.286Z,6.30
2023-03-19T20:37:36.370Z,6.13
2023-03-19T20:40:07.153Z,6.57
2023-03-19T20:42:35.693Z,6.43
2023-03-19T20:45:04.506Z,5.70
2023-03-19T20:47:33.313Z,6.20
2023-03-19T20:50:01.838Z,7.00
2023-03-19T20:52:30.825Z,6.27
2023-03-19T20:54:59.181Z,6.60
2023-03-19T20:57:30.678Z,10.03
2023-03-19T21:00:04.100Z,9.13
2023-03-19T21:02:32.351Z,10.97
2023-03-19T21:05:01.065Z,8.60
2023-03-19T21:07:33.431Z,8.47
2023-03-19T21:10:07.072Z,8.47
2023-03-19T21:12:36.801Z,8.60
2023-03-19T21:15:06.409Z,8.43
2023-03-19T21:17:34.875Z,10.47
2023-03-19T21:20:03.037Z,10.60
2023-03-19T21:22:32.810Z,9.93
2023-03-19T21:25:06.854Z,8.20
2023-03-19T21:27:38.171Z,6.77
2023-03-19T21:30:08.419Z,6.47
2023-03-19T21:32:36.495Z,8.73
2023-03-19T21:35:04.977Z,8.17
2023-03-19T21:37:33.461Z,8.50
2023-03-19T21:40:02.032Z,8.97
2023-03-19T21:42:32.796Z,7.80
2023-03-19T21:45:02.433Z,6.10
2023-03-19T21:47:30.520Z,5.37
2023-03-19T21:50:00.223Z,5.37
2023-03-19T21:52:28.476Z,5.70
2023-03-19T21:54:56.955Z,6.97
2023-03-19T21:57:26.009Z,6.23
2023-03-19T21:59:54.169Z,6.90
2023-03-19T22:02:43.393Z,7.20
2023-03-19T22:05:21.315Z,6.17
2023-03-19T22:07:50.057Z,6.87
2023-03-19T22:10:19.782Z,6.17
2023-03-19T22:12:49.648Z,6.27
2023-03-19T22:15:29.193Z,6.07
2023-03-19T22:17:59.832Z,5.60
2023-03-19T22:20:28.710Z,4.50
2023-03-19T22:22:58.262Z,4.33
2023-03-19T22:25:35.325Z,4.73
2023-03-19T22:28:16.554Z,5.40
2023-03-19T22:30:45.270Z,4.83
2023-03-19T22:33:19.246Z,6.30
2023-03-19T22:35:49.589Z,6.40
2023-03-19T22:38:18.913Z,6.53
2023-03-19T22:40:50.933Z,5.43
2023-03-19T22:43:28.281Z,4.33
2023-03-19T22:46:00.800Z,3.83
2023-03-19T22:48:30.456Z,3.83
2023-03-19T22:50:58.811Z,3.70
2023-03-19T22:53:29.722Z,3.70
2023-03-19T22:55:58.877Z,4.30
2023-03-19T22:58:27.824Z,6.40
2023-03-19T23:00:57.252Z,7.83
2023-03-19T23:03:28.321Z,4.40
2023-03-19T23:06:02.317Z,3.80
2023-03-19T23:08:30.713Z,3.40
2023-03-19T23:10:59.146Z,3.57
2023-03-19T23:13:27.311Z,3.40
2023-03-19T23:16:00.198Z,3.80
2023-03-19T23:18:32.910Z,3.50
2023-03-19T23:21:03.582Z,4.53
2023-03-19T23:23:33.565Z,5.97
2023-03-19T23:26:01.928Z,4.90
2023-03-19T23:28:34.040Z,4.63
2023-03-19T23:31:03.846Z,6.17
2023-03-19T23:33:32.049Z,5.40
2023-03-19T23:36:00.600Z,4.17
2023-03-19T23:38:30.120Z,5.30
2023-03-19T23:40:58.740Z,4.80
2023-03-19T23:43:29.882Z,4.57
2023-03-19T23:45:58.762Z,4.03
2023-03-19T23:48:33.609Z,4.00
2023-03-19T23:51:02.156Z,3.60
2023-03-19T23:53:32.019Z,5.07
2023-03-19T23:56:04.659Z,5.77
2023-03-19T23:58:40.160Z,5.20
